createdAt,value
2022-09-24T00:01:19.248Z,8.80
2022-09-24T00:03:51.859Z,8.68
2022-09-24T00:06:20.266Z,8.32
2022-09-24T00:08:48.787Z,8.82
2022-09-24T00:11:21.107Z,7.95
2022-09-24T00:13:49.213Z,7.72
2022-09-24T00:16:17.855Z,7.40
2022-09-24T00:18:45.027Z,8.27
2022-09-24T00:21:29.241Z,8.13
2022-09-24T00:23:57.784Z,8.70
2022-09-24T00:26:45.026Z,9.30
2022-09-24T00:29:13.477Z,8.52
2022-09-24T00:31:42.676Z,9.23
2022-09-24T00:34:17.506Z,8.65
2022-09-24T00:36:47.066Z,8.10
2022-09-24T00:39:14.699Z,8.27
2022-09-24T00:41:45.078Z,8.05
2022-09-24T00:44:35.144Z,8.70
2022-09-24T00:47:02.122Z,7.97
2022-09-24T00:49:29.924Z,7.95
2022-09-24T00:51:59.513Z,7.20
2022-09-24T00:54:28.951Z,7.47
2022-09-24T00:57:00.581Z,7.72
2022-09-24T00:59:29.996Z,8.05
2022-09-24T01:01:59.969Z,8.18
2022-09-24T01:04:30.685Z,8.05
2022-09-24T01:06:57.561Z,8.02
2022-09-24T01:12:23.119Z,7.53
2022-09-24T01:14:53.714Z,7.70
2022-09-24T01:17:23.842Z,7.63
2022-09-24T01:20:00.650Z,8.27
2022-09-24T01:22:50.452Z,7.93
2022-09-24T01:25:27.860Z,8.55
2022-09-24T01:28:13.523Z,7.60
2022-09-24T01:30:44.137Z,7.95
2022-09-24T01:33:13.959Z,7.43
2022-09-24T01:35:45.391Z,8.10
2022-09-24T01:38:19.352Z,7.68
2022-09-24T01:40:58.294Z,7.53
2022-09-24T01:43:27.893Z,8.07
2022-09-24T01:46:02.206Z,8.10
2022-09-24T01:48:30.878Z,7.65
2022-09-24T01:51:07.694Z,8.18
2022-09-24T01:53:40.835Z,8.10
2022-09-24T01:56:11.217Z,7.75
2022-09-24T01:58:44.951Z,8.07
2022-09-24T02:01:16.627Z,7.45
2022-09-24T02:03:52.349Z,7.15
2022-09-24T02:06:26.961Z,8.13
2022-09-24T02:08:56.810Z,7.55
2022-09-24T02:11:26.875Z,7.45
2022-09-24T02:14:02.219Z,7.40
2022-09-24T02:16:39.999Z,7.50
2022-09-24T02:19:19.648Z,7.93
2022-09-24T02:21:47.703Z,6.68
2022-09-24T02:24:17.255Z,7.60
2022-09-24T02:26:44.312Z,7.07
2022-09-24T02:29:13.059Z,7.57
2022-09-24T02:31:43.388Z,7.10
2022-09-24T02:34:24.959Z,7.03
2022-09-24T02:37:00.091Z,8.00
2022-09-24T02:39:28.871Z,7.13
2022-09-24T02:41:59.343Z,7.63
2022-09-24T02:44:26.410Z,7.85
2022-09-24T02:46:54.719Z,7.47
2022-09-24T02:49:22.051Z,8.07
2022-09-24T02:51:52.939Z,7.63
2022-09-24T02:54:22.140Z,7.60
2022-09-24T02:56:53.102Z,7.28
2022-09-24T02:59:20.936Z,7.50
2022-09-24T03:01:53.293Z,7.88
2022-09-24T03:04:24.625Z,7.88
2022-09-24T03:06:52.073Z,7.32
2022-09-24T03:09:19.312Z,7.63
2022-09-24T03:11:52.975Z,7.88
2022-09-24T03:14:20.042Z,6.88
2022-09-24T03:16:47.081Z,7.25
2022-09-24T03:19:15.065Z,7.78
2022-09-24T03:21:43.197Z,7.90
2022-09-24T03:24:11.318Z,8.70
2022-09-24T03:26:38.881Z,9.20
2022-09-24T03:29:07.130Z,9.05
2022-09-24T03:31:36.406Z,8.68
2022-09-24T03:34:04.229Z,8.57
2022-09-24T03:36:37.413Z,7.82
2022-09-24T03:39:09.162Z,8.48
2022-09-24T03:41:36.559Z,7.88
2022-09-24T03:44:04.042Z,8.05
2022-09-24T03:46:32.442Z,7.72
2022-09-24T03:49:01.406Z,8.40
2022-09-24T03:51:29.044Z,9.10
2022-09-24T03:53:56.230Z,8.02
2022-09-24T03:56:26.373Z,7.93
2022-09-24T03:58:53.390Z,8.32
2022-09-24T04:01:21.863Z,7.93
2022-09-24T04:03:53.427Z,7.85
2022-09-24T04:06:25.811Z,7.88
2022-09-24T04:08:54.063Z,7.85
2022-09-24T04:11:21.372Z,7.95
2022-09-24T04:13:50.347Z,7.80
2022-09-24T04:16:17.622Z,7.78
2022-09-24T04:18:44.775Z,8.73
2022-09-24T04:21:14.778Z,7.88
2022-09-24T04:23:44.253Z,8.20
2022-09-24T04:26:11.854Z,8.70
2022-09-24T04:28:42.624Z,9.38
2022-09-24T04:31:10.632Z,9.98
2022-09-24T04:33:38.146Z,9.73
2022-09-24T04:36:06.553Z,9.02
2022-09-24T04:38:33.943Z,9.98
2022-09-24T04:41:09.379Z,8.98
2022-09-24T04:43:42.407Z,8.85
2022-09-24T04:46:10.877Z,9.27
2022-09-24T04:48:41.739Z,9.20
2022-09-24T04:51:10.548Z,8.50
2022-09-24T04:53:42.228Z,8.80
2022-09-24T04:56:13.753Z,9.43
2022-09-24T04:58:41.200Z,9.23
2022-09-24T05:01:08.813Z,8.55
2022-09-24T05:03:35.815Z,8.15
2022-09-24T05:06:02.928Z,8.77
2022-09-24T05:08:31.785Z,8.85
2022-09-24T05:11:02.898Z,8.95
2022-09-24T05:13:31.034Z,8.38
2022-09-24T05:16:01.775Z,8.30
2022-09-24T05:18:28.510Z,8.68
2022-09-24T05:20:56.323Z,8.93
2022-09-24T05:23:25.650Z,8.77
2022-09-24T05:26:13.313Z,8.98
2022-09-24T05:28:43.335Z,9.00
2022-09-24T05:31:11.160Z,8.93
2022-09-24T05:33:39.075Z,9.77
2022-09-24T05:36:08.580Z,9.93
2022-09-24T05:38:36.562Z,9.70
2022-09-24T05:41:05.868Z,10.00
2022-09-24T05:43:36.110Z,9.85
2022-09-24T05:46:03.415Z,9.70
2022-09-24T05:48:30.521Z,9.98
2022-09-24T05:51:01.429Z,9.25
2022-09-24T05:53:28.017Z,9.38
2022-09-24T05:55:59.066Z,9.40
2022-09-24T05:58:25.866Z,10.02
2022-09-24T06:00:52.504Z,10.73
2022-09-24T06:03:19.688Z,10.05
2022-09-24T06:05:47.084Z,9.50
2022-09-24T06:08:15.270Z,10.00
2022-09-24T06:10:48.020Z,9.70
2022-09-24T06:13:17.728Z,9.73
2022-09-24T06:15:44.445Z,9.82
2022-09-24T06:18:11.713Z,10.15
2022-09-24T06:20:44.558Z,10.15
2022-09-24T06:23:11.118Z,9.93
2022-09-24T06:25:37.589Z,9.70
2022-09-24T06:28:04.651Z,10.25
2022-09-24T06:30:33.674Z,10.15
2022-09-24T06:33:05.567Z,10.63
2022-09-24T06:35:37.087Z,9.70
2022-09-24T06:38:07.156Z,10.00
2022-09-24T06:40:37.099Z,9.90
2022-09-24T06:43:04.282Z,10.50
2022-09-24T06:45:30.697Z,11.25
2022-09-24T06:47:58.128Z,16.75
2022-09-24T06:50:27.101Z,17.35
2022-09-24T06:52:56.135Z,18.27
2022-09-24T06:55:22.977Z,16.08
2022-09-24T06:57:49.462Z,13.77
2022-09-24T07:00:18.837Z,13.85
2022-09-24T07:02:53.135Z,11.02
2022-09-24T07:05:19.677Z,12.18
2022-09-24T07:07:46.635Z,11.90
2022-09-24T07:10:13.575Z,12.98
2022-09-24T07:12:41.347Z,13.20
2022-09-24T07:15:08.797Z,14.63
2022-09-24T07:17:35.217Z,16.08
2022-09-24T07:20:02.082Z,15.57
2022-09-24T07:22:28.516Z,13.75
2022-09-24T07:24:54.984Z,15.57
2022-09-24T07:27:21.511Z,16.60
2022-09-24T07:29:48.648Z,13.48
2022-09-24T07:32:18.455Z,12.70
2022-09-24T07:34:45.244Z,12.35
2022-09-24T07:37:11.866Z,10.93
2022-09-24T07:39:39.820Z,11.77
2022-09-24T07:42:07.296Z,13.63
2022-09-24T07:44:33.714Z,19.58
2022-09-24T07:47:00.205Z,20.15
2022-09-24T07:49:30.107Z,18.75
2022-09-24T07:51:56.525Z,22.52
2022-09-24T07:54:22.981Z,17.58
2022-09-24T07:56:49.424Z,21.35
2022-09-24T07:59:20.475Z,20.42
2022-09-24T08:01:46.986Z,24.35
2022-09-24T08:04:16.074Z,24.85
2022-09-24T08:06:47.367Z,21.38
2022-09-24T08:09:15.069Z,23.27
2022-09-24T08:11:42.736Z,22.40
2022-09-24T08:14:09.898Z,24.15
2022-09-24T08:16:36.992Z,26.80
2022-09-24T08:19:03.519Z,29.60
2022-09-24T08:21:29.944Z,34.78
2022-09-24T08:23:56.807Z,44.13
2022-09-24T08:26:23.219Z,41.97
2022-09-24T08:28:51.355Z,32.65
2022-09-24T08:31:17.823Z,29.55
2022-09-24T08:33:46.293Z,29.42
2022-09-24T08:36:20.606Z,25.30
2022-09-24T08:38:47.598Z,23.98
2022-09-24T08:41:19.708Z,21.42
2022-09-24T08:43:54.784Z,19.95
2022-09-24T08:46:52.992Z,18.52
2022-09-24T08:49:24.476Z,20.35
2022-09-24T08:52:03.281Z,20.05
2022-09-24T08:54:31.213Z,21.15
2022-09-24T08:56:58.632Z,22.35
2022-09-24T08:59:27.949Z,18.95
2022-09-24T09:02:13.469Z,19.40
2022-09-24T09:04:55.384Z,20.85
2022-09-24T09:07:24.944Z,20.17
2022-09-24T09:09:57.429Z,22.13
2022-09-24T09:12:26.636Z,22.88
2022-09-24T09:14:59.445Z,21.63
2022-09-24T09:17:38.050Z,21.02
2022-09-24T09:20:07.459Z,19.65
2022-09-24T09:22:44.064Z,18.25
2022-09-24T09:25:25.159Z,19.63
2022-09-24T09:27:54.412Z,19.90
2022-09-24T09:30:21.937Z,19.95
2022-09-24T09:32:51.222Z,20.23
2022-09-24T09:35:19.485Z,19.05
2022-09-24T09:37:46.010Z,18.58
2022-09-24T09:40:35.650Z,17.27
2022-09-24T09:43:03.803Z,19.02
2022-09-24T09:45:33.113Z,18.30
2022-09-24T09:47:59.760Z,17.08
2022-09-24T09:51:04.409Z,18.58
2022-09-24T09:53:34.261Z,16.75
2022-09-24T09:56:07.568Z,15.85
2022-09-24T09:58:36.107Z,16.08
2022-09-24T10:01:06.449Z,15.40
2022-09-24T10:03:34.908Z,15.73
2022-09-24T10:06:02.577Z,15.60
2022-09-24T10:08:31.226Z,15.23
2022-09-24T10:11:01.170Z,16.45
2022-09-24T10:13:27.796Z,16.38
2022-09-24T10:15:55.587Z,17.10
2022-09-24T10:18:28.502Z,16.75
2022-09-24T10:20:57.224Z,17.17
2022-09-24T10:23:32.581Z,15.85
2022-09-24T10:26:00.563Z,18.35
2022-09-24T10:28:46.292Z,17.58
2022-09-24T10:31:12.776Z,16.83
2022-09-24T10:33:40.740Z,17.23
2022-09-24T10:36:16.149Z,17.20
2022-09-24T10:38:43.747Z,17.75
2022-09-24T10:41:27.390Z,17.98
2022-09-24T10:43:54.792Z,17.42
2022-09-24T10:46:39.981Z,18.48
2022-09-24T10:49:06.381Z,18.25
2022-09-24T10:51:35.984Z,19.58
2022-09-24T10:54:21.395Z,18.40
2022-09-24T10:56:51.631Z,18.25
2022-09-24T10:59:35.486Z,17.38
2022-09-24T11:02:02.022Z,18.95
2022-09-24T11:04:28.542Z,18.05
2022-09-24T11:07:04.181Z,17.92
2022-09-24T11:09:30.586Z,17.63
2022-09-24T11:12:19.747Z,17.05
2022-09-24T11:15:00.340Z,17.10
2022-09-24T11:17:30.037Z,16.90
2022-09-24T11:20:06.733Z,16.00
2022-09-24T11:22:36.189Z,15.75
2022-09-24T11:25:07.582Z,15.95
2022-09-24T11:27:37.093Z,15.20
2022-09-24T11:30:13.147Z,15.35
2022-09-24T11:32:39.627Z,15.32
2022-09-24T11:35:06.313Z,14.68
2022-09-24T11:37:47.414Z,13.80
2022-09-24T11:40:16.854Z,13.45
2022-09-24T11:43:01.930Z,13.77
2022-09-24T11:45:34.408Z,13.60
2022-09-24T11:48:19.146Z,13.60
2022-09-24T11:51:00.517Z,12.90
2022-09-24T11:53:45.892Z,13.98
2022-09-24T11:56:18.443Z,14.13
2022-09-24T11:59:17.418Z,13.38
2022-09-24T12:01:50.658Z,13.32
2022-09-24T12:04:20.027Z,13.85
2022-09-24T12:06:52.391Z,15.60
2022-09-24T12:09:33.339Z,14.90
2022-09-24T12:12:03.544Z,14.65
2022-09-24T12:14:31.934Z,14.60
2022-09-24T12:17:05.545Z,13.57
2022-09-24T12:19:38.343Z,14.57
2022-09-24T12:22:06.174Z,14.68
2022-09-24T12:24:37.369Z,14.65
2022-09-24T12:27:12.026Z,14.57
2022-09-24T12:30:03.365Z,14.27
2022-09-24T12:32:51.975Z,13.77
2022-09-24T12:35:23.328Z,13.27
2022-09-24T12:37:53.051Z,15.10
2022-09-24T12:40:24.612Z,13.52
2022-09-24T12:42:54.696Z,14.20
2022-09-24T12:45:22.374Z,13.85
2022-09-24T12:48:00.742Z,14.63
2022-09-24T12:50:28.353Z,13.43
2022-09-24T12:52:55.367Z,13.20
2022-09-24T12:55:26.650Z,12.68
2022-09-24T12:58:05.283Z,11.90
2022-09-24T13:00:37.370Z,13.18
2022-09-24T13:03:06.213Z,13.52
2022-09-24T13:05:34.417Z,12.65
2022-09-24T13:08:20.760Z,13.20
2022-09-24T13:10:56.875Z,13.23
2022-09-24T13:13:27.454Z,13.70
2022-09-24T13:16:02.947Z,11.80
2022-09-24T13:18:30.837Z,14.90
2022-09-24T13:21:01.276Z,12.90
2022-09-24T13:23:29.343Z,14.68
2022-09-24T13:25:56.570Z,13.93
2022-09-24T13:28:31.700Z,14.40
2022-09-24T13:31:15.715Z,13.63
2022-09-24T13:33:48.303Z,12.15
2022-09-24T13:36:15.533Z,10.43
2022-09-24T13:38:58.150Z,10.02
2022-09-24T13:41:33.826Z,9.98
2022-09-24T13:44:02.305Z,9.48
2022-09-24T13:46:29.975Z,9.73
2022-09-24T13:48:59.064Z,10.05
2022-09-24T13:51:28.561Z,10.13
2022-09-24T13:53:58.101Z,10.13
2022-09-24T13:56:24.565Z,9.50
2022-09-24T13:58:51.647Z,9.55
2022-09-24T14:01:19.899Z,9.23
2022-09-24T14:04:12.782Z,8.98
2022-09-24T14:06:42.517Z,8.57
2022-09-24T14:09:27.991Z,9.40
2022-09-24T14:11:56.212Z,8.75
2022-09-24T14:14:24.469Z,9.30
2022-09-24T14:16:54.796Z,9.57
2022-09-24T14:19:22.544Z,9.75
2022-09-24T14:21:57.034Z,9.55
2022-09-24T14:24:25.495Z,10.00
2022-09-24T14:26:55.319Z,9.57
2022-09-24T14:29:28.357Z,9.25
2022-09-24T14:31:57.751Z,9.32
2022-09-24T14:34:32.427Z,10.68
2022-09-24T14:37:00.870Z,9.65
2022-09-24T14:39:28.325Z,10.60
2022-09-24T14:41:57.192Z,9.98
2022-09-24T14:44:32.510Z,9.93
2022-09-24T14:46:59.503Z,10.57
2022-09-24T14:49:27.133Z,11.43
2022-09-24T14:51:56.559Z,10.43
2022-09-24T14:54:32.148Z,10.93
2022-09-24T14:57:11.657Z,10.95
2022-09-24T14:59:38.630Z,10.68
2022-09-24T15:02:05.110Z,11.35
2022-09-24T15:04:31.657Z,10.27
2022-09-24T15:06:58.087Z,12.23
2022-09-24T15:09:31.490Z,11.48
2022-09-24T15:12:17.240Z,12.25
2022-09-24T15:14:53.185Z,12.05
2022-09-24T15:17:21.612Z,12.77
2022-09-24T15:19:48.201Z,13.13
2022-09-24T15:22:14.891Z,12.63
2022-09-24T15:24:41.278Z,12.63
2022-09-24T15:27:26.739Z,11.77
2022-09-24T15:29:59.289Z,11.02
2022-09-24T15:32:26.517Z,13.95
2022-09-24T15:34:54.030Z,12.05
2022-09-24T15:37:21.383Z,11.15
2022-09-24T15:39:49.166Z,10.85
2022-09-24T15:42:19.541Z,11.23
2022-09-24T15:44:46.351Z,12.60
2022-09-24T15:47:13.143Z,13.00
2022-09-24T15:49:40.009Z,15.27
2022-09-24T15:52:07.882Z,13.10
2022-09-24T15:54:36.628Z,12.82
2022-09-24T15:57:04.723Z,13.13
2022-09-24T15:59:31.160Z,13.40
2022-09-24T16:02:00.665Z,11.68
2022-09-24T16:04:27.645Z,12.00
2022-09-24T16:06:54.452Z,12.63
2022-09-24T16:09:20.944Z,12.43
2022-09-24T16:11:47.649Z,13.27
2022-09-24T16:14:14.114Z,11.25
2022-09-24T16:16:40.602Z,11.73
2022-09-24T16:19:08.503Z,12.20
2022-09-24T16:21:35.319Z,12.38
2022-09-24T16:24:03.139Z,11.82
2022-09-24T16:26:29.657Z,12.48
2022-09-24T16:28:56.055Z,11.90
2022-09-24T16:31:23.777Z,11.65
2022-09-24T16:33:50.331Z,11.65
2022-09-24T16:36:16.807Z,11.80
2022-09-24T16:38:43.319Z,12.00
2022-09-24T16:41:10.761Z,11.68
2022-09-24T16:43:37.499Z,11.38
2022-09-24T16:46:05.197Z,11.65
2022-09-24T16:48:31.822Z,11.60
2022-09-24T16:51:05.662Z,11.38
2022-09-24T16:53:33.113Z,10.93
2022-09-24T16:56:26.166Z,11.93
2022-09-24T16:58:52.841Z,10.85
2022-09-24T17:01:21.288Z,12.90
2022-09-24T17:03:52.120Z,11.95
2022-09-24T17:06:20.015Z,12.75
2022-09-24T17:09:05.143Z,12.68
2022-09-24T17:11:31.557Z,12.90
2022-09-24T17:13:57.996Z,12.38
2022-09-24T17:16:27.398Z,11.65
2022-09-24T17:18:56.828Z,13.13
2022-09-24T17:21:23.634Z,15.30
2022-09-24T17:23:50.293Z,14.63
2022-09-24T17:26:18.337Z,17.55
2022-09-24T17:28:45.832Z,16.48
2022-09-24T17:31:14.307Z,16.08
2022-09-24T17:33:43.745Z,16.77
2022-09-24T17:36:12.134Z,16.27
2022-09-24T17:38:38.802Z,15.63
2022-09-24T17:41:09.829Z,15.10
2022-09-24T17:43:36.838Z,15.27
2022-09-24T17:46:08.694Z,15.45
2022-09-24T17:48:39.210Z,16.10
2022-09-24T17:51:06.993Z,15.60
2022-09-24T17:53:34.354Z,17.05
2022-09-24T17:56:01.019Z,16.33
2022-09-24T17:58:27.663Z,17.13
2022-09-24T18:00:54.640Z,17.13
2022-09-24T18:03:21.184Z,16.92
2022-09-24T18:05:47.791Z,17.30
2022-09-24T18:08:14.262Z,18.05
2022-09-24T18:10:40.684Z,16.80
2022-09-24T18:13:07.114Z,17.60
2022-09-24T18:15:35.977Z,16.73
2022-09-24T18:18:02.516Z,17.58
2022-09-24T18:20:31.775Z,18.45
2022-09-24T18:22:58.302Z,17.88
2022-09-24T18:25:26.951Z,18.52
2022-09-24T18:27:53.613Z,18.20
2022-09-24T18:30:20.014Z,19.70
2022-09-24T18:32:46.495Z,18.20
2022-09-24T18:35:13.005Z,17.55
2022-09-24T18:37:39.527Z,17.55
2022-09-24T18:40:06.904Z,16.50
2022-09-24T18:42:36.605Z,14.70
2022-09-24T18:45:03.472Z,14.70
2022-09-24T18:47:30.009Z,15.38
2022-09-24T18:49:56.633Z,14.88
2022-09-24T18:52:23.187Z,14.52
2022-09-24T18:54:50.166Z,14.27
2022-09-24T18:57:16.682Z,14.50
2022-09-24T18:59:46.825Z,14.18
2022-09-24T19:02:13.972Z,13.40
2022-09-24T19:04:41.181Z,14.02
2022-09-24T19:07:08.485Z,13.52
2022-09-24T19:09:35.729Z,12.10
2022-09-24T19:12:05.198Z,13.15
2022-09-24T19:14:31.926Z,13.77
2022-09-24T19:16:58.409Z,13.80
2022-09-24T19:19:26.787Z,13.43
2022-09-24T19:21:53.391Z,13.32
2022-09-24T19:24:19.834Z,13.32
2022-09-24T19:26:46.263Z,12.07
2022-09-24T19:29:12.844Z,12.30
2022-09-24T19:31:40.707Z,13.30
2022-09-24T19:34:08.024Z,13.85
2022-09-24T19:36:43.068Z,14.38
2022-09-24T19:39:11.539Z,13.50
2022-09-24T19:41:38.026Z,13.70
2022-09-24T19:44:08.873Z,13.02
2022-09-24T19:46:37.064Z,13.23
2022-09-24T19:49:04.170Z,13.82
2022-09-24T19:51:32.087Z,13.73
2022-09-24T19:54:00.208Z,14.63
2022-09-24T19:56:27.146Z,15.05
2022-09-24T19:58:54.633Z,14.85
2022-09-24T20:01:22.564Z,14.77
2022-09-24T20:03:49.307Z,14.23
2022-09-24T20:06:17.364Z,14.75
2022-09-24T20:08:43.834Z,15.27
2022-09-24T20:11:11.628Z,14.60
2022-09-24T20:13:46.023Z,15.52
2022-09-24T20:16:15.594Z,15.60
2022-09-24T20:18:42.560Z,15.90
2022-09-24T20:21:10.319Z,16.55
2022-09-24T20:23:36.666Z,15.43
2022-09-24T20:26:21.786Z,16.20
2022-09-24T20:28:48.148Z,16.55
2022-09-24T20:31:16.091Z,16.60
2022-09-24T20:33:43.064Z,16.25
2022-09-24T20:36:16.516Z,17.27
2022-09-24T20:38:45.044Z,16.17
2022-09-24T20:41:12.580Z,16.02
2022-09-24T20:43:40.384Z,16.48
2022-09-24T20:46:14.043Z,18.92
2022-09-24T20:48:40.588Z,18.48
2022-09-24T20:51:08.088Z,18.60
2022-09-24T20:53:35.272Z,19.42
2022-09-24T20:56:01.917Z,19.92
2022-09-24T20:58:28.376Z,20.85
2022-09-24T21:00:54.741Z,20.27
2022-09-24T21:03:42.790Z,20.15
2022-09-24T21:06:08.953Z,21.50
2022-09-24T21:08:37.940Z,23.55
2022-09-24T21:11:08.318Z,22.58
2022-09-24T21:13:35.689Z,24.23
2022-09-24T21:16:05.652Z,22.70
2022-09-24T21:18:40.683Z,21.83
2022-09-24T21:21:08.585Z,22.42
2022-09-24T21:23:36.123Z,20.20
2022-09-24T21:26:09.531Z,21.50
2022-09-24T21:28:36.362Z,20.55
2022-09-24T21:31:03.886Z,19.83
2022-09-24T21:33:31.182Z,20.65
2022-09-24T21:36:00.175Z,20.88
2022-09-24T21:38:26.676Z,18.42
2022-09-24T21:40:54.177Z,19.83
2022-09-24T21:43:25.771Z,21.48
2022-09-24T21:46:00.965Z,21.17
2022-09-24T21:48:27.418Z,21.08
2022-09-24T21:50:54.209Z,20.08
2022-09-24T21:53:20.820Z,22.35
2022-09-24T21:55:50.181Z,20.85
2022-09-24T21:58:16.690Z,21.15
2022-09-24T22:00:43.220Z,20.85
2022-09-24T22:03:09.981Z,20.23
2022-09-24T22:05:41.089Z,19.98
2022-09-24T22:08:11.688Z,20.75
2022-09-24T22:10:39.149Z,19.58
2022-09-24T22:13:05.671Z,21.70
2022-09-24T22:15:32.284Z,20.88
2022-09-24T22:18:00.027Z,23.42
2022-09-24T22:20:26.880Z,22.30
2022-09-24T22:22:53.408Z,22.38
2022-09-24T22:25:19.806Z,23.80
2022-09-24T22:27:46.262Z,21.95
2022-09-24T22:30:12.965Z,22.92
2022-09-24T22:32:39.376Z,22.63
2022-09-24T22:35:24.470Z,22.85
2022-09-24T22:37:51.272Z,22.95
2022-09-24T22:40:17.741Z,21.25
2022-09-24T22:42:44.266Z,22.75
2022-09-24T22:45:11.170Z,22.17
2022-09-24T22:47:37.676Z,20.95
2022-09-24T22:50:04.599Z,21.48
2022-09-24T22:52:31.111Z,22.00
2022-09-24T22:54:57.527Z,23.27
2022-09-24T22:57:24.076Z,22.08
2022-09-24T22:59:50.629Z,23.08
2022-09-24T23:02:17.063Z,22.35
2022-09-24T23:04:43.519Z,23.40
2022-09-24T23:07:10.486Z,22.35
2022-09-24T23:09:36.959Z,23.27
2022-09-24T23:12:03.506Z,22.25
2022-09-24T23:14:29.920Z,23.95
2022-09-24T23:16:58.571Z,21.80
2022-09-24T23:19:45.094Z,22.25
2022-09-24T23:22:11.527Z,22.40
2022-09-24T23:24:38.912Z,22.50
2022-09-24T23:27:05.613Z,23.13
2022-09-24T23:29:32.135Z,21.13
2022-09-24T23:31:58.646Z,21.83
2022-09-24T23:34:25.110Z,21.73
2022-09-24T23:36:51.516Z,21.30
2022-09-24T23:39:17.992Z,19.77
2022-09-24T23:41:44.482Z,22.25
2022-09-24T23:44:11.097Z,21.35
2022-09-24T23:46:38.124Z,20.45
2022-09-24T23:49:04.603Z,20.30
2022-09-24T23:51:31.490Z,21.83
2022-09-24T23:53:57.880Z,20.67
2022-09-24T23:56:24.432Z,19.13
2022-09-24T23:58:50.943Z,20.13
